タシュケント の空港の天気 - METARとTAF

タシケント空港 ( UTTT / TAS ) - ウズベキスタン タシュケント
飛行場実況気象(Metar)
観測時間03/29 02:00 +05 (03/28 21:00 UTC)
風向・風速東 4m/s
視程10km以上
天気現象
なし
気温13℃
湿度54%
気圧1014hPa
METARUTTT 282100Z 08008KT CAVOK 13/04 Q1014 R08R/CLRD70 NOSIG
過去の天気等 Google飛行場航空写真 Wunderground天気予報

過去48時間のMETAR

飛行場予報(TAF)
発表時間: 3/29 00:10 +05 (3/28 19:10 UTC)
予報対象時間: 29日0時 +05 ~ 29日23時 +05
風向・風速東 6m/s
視程7,000m
少しの積乱雲 雲底高度 1,830m
全天の8割程度の雲 雲底高度 3,050m
29日0時 +05 ~ 29日11時 +05 に一時的に
風向・風速不定 10m/s 瞬間風速 15m/s
視程3,000m
天気現象弱い雷雨 もや
全天の4割程度の雲 雲底高度 300m
全天の8割程度の積乱雲 雲底高度 610m
全天を覆う雲 雲底高度 3,050m
TAF AMD UTTT 281910Z 2819/2918 08012KT 7000 FEW060CB BKN100
TEMPO 2819/2906 VRB20G30KT 3000 -TSRA BR SCT010 BKN020CB OVC100